createdAt,value
2023-02-04T00:02:57.856Z,0.95
2023-02-04T00:06:02.597Z,0.90
2023-02-04T00:09:07.424Z,0.80
2023-02-04T00:12:10.716Z,1.17
2023-02-04T00:15:13.046Z,1.45
2023-02-04T00:18:15.316Z,1.08
2023-02-04T00:21:17.621Z,0.80
2023-02-04T00:24:21.228Z,1.15
2023-02-04T00:27:23.719Z,1.13
2023-02-04T00:30:26.018Z,0.90
2023-02-04T00:33:31.337Z,1.33
2023-02-04T00:36:33.783Z,0.82
2023-02-04T00:39:37.498Z,0.98
2023-02-04T00:42:41.383Z,1.33
2023-02-04T00:45:43.681Z,1.40
2023-02-04T00:48:46.045Z,1.10
2023-02-04T00:51:48.467Z,0.90
2023-02-04T00:54:52.142Z,1.00
2023-02-04T00:57:54.345Z,2.05
2023-02-04T01:00:56.892Z,0.77
2023-02-04T01:03:59.317Z,1.30
2023-02-04T01:07:02.580Z,1.13
2023-02-04T01:10:06.668Z,1.08
2023-02-04T01:13:09.259Z,1.30
2023-02-04T01:16:11.797Z,1.55
2023-02-04T01:19:14.080Z,1.20
2023-02-04T01:22:16.425Z,0.70
2023-02-04T01:25:20.091Z,1.00
2023-02-04T01:28:22.378Z,0.95
2023-02-04T01:31:24.772Z,0.80
2023-02-04T01:34:27.047Z,1.45
2023-02-04T01:37:29.275Z,0.90
2023-02-04T01:40:33.204Z,1.10
2023-02-04T01:43:35.608Z,1.50
2023-02-04T01:46:37.958Z,1.23
2023-02-04T01:49:40.424Z,1.40
2023-02-04T01:52:44.619Z,0.85
2023-02-04T01:55:48.490Z,1.00
2023-02-04T01:58:50.908Z,1.20
2023-02-04T02:01:54.006Z,1.17
2023-02-04T02:04:56.324Z,0.90
2023-02-04T02:08:02.410Z,1.02
2023-02-04T02:11:06.217Z,0.95
2023-02-04T02:14:08.655Z,1.00
2023-02-04T02:17:10.962Z,0.80
2023-02-04T02:20:15.128Z,0.90
2023-02-04T02:23:23.588Z,1.00
2023-02-04T02:26:27.577Z,1.08
2023-02-04T02:29:29.921Z,0.80
2023-02-04T02:32:32.519Z,0.88
2023-02-04T02:35:34.913Z,0.80
2023-02-04T02:38:38.410Z,1.10
2023-02-04T02:41:42.160Z,1.35
2023-02-04T02:44:45.507Z,0.90
2023-02-04T02:47:48.150Z,1.17
2023-02-04T02:50:51.001Z,1.00
2023-02-04T02:53:53.928Z,0.88
2023-02-04T02:56:58.097Z,1.30
2023-02-04T03:00:00.572Z,1.00
2023-02-04T03:03:15.931Z,1.38
2023-02-04T03:06:20.834Z,0.90
2023-02-04T03:09:24.809Z,0.68
2023-02-04T03:12:28.488Z,0.65
2023-02-04T03:15:31.278Z,0.90
2023-02-04T03:18:34.536Z,0.90
2023-02-04T03:21:38.026Z,0.70
2023-02-04T03:24:40.426Z,0.70
2023-02-04T03:27:44.188Z,0.70
2023-02-04T03:30:53.782Z,0.70
2023-02-04T03:33:56.163Z,0.80
2023-02-04T03:36:58.395Z,1.10
2023-02-04T03:40:00.636Z,1.08
2023-02-04T03:43:04.279Z,0.73
2023-02-04T03:46:06.562Z,1.10
2023-02-04T03:49:08.908Z,1.05
2023-02-04T03:52:11.246Z,0.80
2023-02-04T03:55:13.700Z,0.60
2023-02-04T03:58:17.282Z,0.90
2023-02-04T04:01:19.655Z,1.00
2023-02-04T04:04:21.948Z,1.20
2023-02-04T04:07:24.200Z,0.60
2023-02-04T04:10:26.730Z,0.75
2023-02-04T04:13:30.304Z,0.90
2023-02-04T04:16:32.596Z,0.70
2023-02-04T04:19:34.906Z,0.88
2023-02-04T04:22:37.152Z,0.80
2023-02-04T04:25:39.401Z,0.80
2023-02-04T04:28:43.459Z,1.00
2023-02-04T04:31:45.741Z,1.00
2023-02-04T04:34:48.100Z,0.63
2023-02-04T04:37:50.409Z,1.00
2023-02-04T04:40:53.110Z,0.80
2023-02-04T04:43:56.763Z,0.90
2023-02-04T04:46:59.050Z,0.77
2023-02-04T04:50:01.605Z,1.20
2023-02-04T04:53:04.010Z,1.00
2023-02-04T04:56:06.795Z,0.80
2023-02-04T04:59:10.448Z,1.10
2023-02-04T05:02:12.790Z,0.82
2023-02-04T05:05:15.245Z,0.80
2023-02-04T05:08:19.306Z,0.80
2023-02-04T05:11:21.747Z,0.82
2023-02-04T05:14:25.416Z,1.00
2023-02-04T05:17:28.791Z,0.77
2023-02-04T05:20:31.452Z,0.95
2023-02-04T05:23:34.307Z,1.23
2023-02-04T05:26:36.616Z,0.90
2023-02-04T05:29:40.290Z,0.70
2023-02-04T05:32:42.522Z,0.80
2023-02-04T05:35:44.742Z,1.00
2023-02-04T05:38:47.103Z,0.90
2023-02-04T05:41:49.362Z,1.00
2023-02-04T05:44:53.019Z,1.00
2023-02-04T05:47:55.335Z,0.80
2023-02-04T05:50:57.742Z,1.00
2023-02-04T05:54:00.025Z,1.10
2023-02-04T05:57:02.595Z,2.25
2023-02-04T06:00:08.086Z,0.90
2023-02-04T06:03:16.056Z,0.70
2023-02-04T06:06:18.439Z,1.40
2023-02-04T06:09:20.726Z,0.65
2023-02-04T06:12:23.016Z,0.85
2023-02-04T06:15:26.620Z,0.80
2023-02-04T06:18:28.940Z,1.08
2023-02-04T06:21:31.195Z,1.38
2023-02-04T06:24:33.562Z,1.05
2023-02-04T06:27:35.811Z,0.80
2023-02-04T06:30:39.516Z,0.80
2023-02-04T06:33:41.828Z,1.13
2023-02-04T06:36:44.084Z,1.20
2023-02-04T06:39:46.405Z,1.13
2023-02-04T06:42:48.707Z,1.00
2023-02-04T06:45:52.404Z,1.33
2023-02-04T06:48:56.663Z,1.17
2023-02-04T06:51:59.041Z,0.90
2023-02-04T06:55:01.425Z,1.05
2023-02-04T06:58:03.772Z,1.02
2023-02-04T07:01:07.687Z,2.30
2023-02-04T07:04:10.473Z,0.93
2023-02-04T07:07:12.778Z,1.00
2023-02-04T07:10:16.780Z,1.13
2023-02-04T07:13:19.103Z,1.00
2023-02-04T07:16:22.816Z,1.08
2023-02-04T07:19:25.901Z,1.33
2023-02-04T07:22:28.158Z,1.05
2023-02-04T07:25:30.390Z,0.90
2023-02-04T07:28:32.753Z,0.90
2023-02-04T07:31:36.488Z,1.60
2023-02-04T07:34:38.797Z,1.38
2023-02-04T07:37:41.149Z,1.10
2023-02-04T07:40:43.455Z,1.48
2023-02-04T07:43:46.014Z,1.10
2023-02-04T07:46:49.587Z,1.02
2023-02-04T07:49:51.869Z,1.83
2023-02-04T07:52:54.164Z,1.38
2023-02-04T07:55:56.507Z,1.05
2023-02-04T07:58:58.842Z,1.33
2023-02-04T08:02:02.581Z,1.15
2023-02-04T08:05:06.386Z,1.50
2023-02-04T08:08:08.922Z,0.93
2023-02-04T08:11:11.209Z,1.13
2023-02-04T08:14:13.600Z,1.40
2023-02-04T08:17:17.230Z,1.33
2023-02-04T08:20:19.726Z,1.15
2023-02-04T08:23:22.919Z,1.50
2023-02-04T08:26:25.344Z,1.52
2023-02-04T08:29:27.625Z,1.45
2023-02-04T08:32:31.460Z,1.10
2023-02-04T08:35:33.651Z,1.10
2023-02-04T08:38:35.923Z,1.83
2023-02-04T08:41:38.695Z,1.13
2023-02-04T08:44:40.944Z,1.83
2023-02-04T08:47:44.587Z,1.92
2023-02-04T08:50:46.795Z,1.67
2023-02-04T08:53:49.165Z,1.80
2023-02-04T08:56:51.511Z,1.50
2023-02-04T08:59:53.769Z,1.77
2023-02-04T09:02:57.475Z,1.92
2023-02-04T09:05:59.808Z,1.10
2023-02-04T09:09:02.066Z,2.00
2023-02-04T09:12:04.337Z,1.10
2023-02-04T09:15:07.130Z,1.00
2023-02-04T09:18:18.803Z,1.92
2023-02-04T09:21:21.068Z,1.20
2023-02-04T09:24:23.766Z,1.45
2023-02-04T09:27:26.024Z,1.60
2023-02-04T09:30:28.309Z,1.20
2023-02-04T09:33:32.628Z,1.80
2023-02-04T09:36:38.006Z,1.70
2023-02-04T09:39:40.307Z,2.17
2023-02-04T09:42:42.823Z,1.98
2023-02-04T09:45:45.308Z,1.65
2023-02-04T09:48:49.545Z,1.40
2023-02-04T09:51:52.593Z,2.33
2023-02-04T09:54:54.896Z,2.53
2023-02-04T09:57:57.298Z,2.40
2023-02-04T10:01:01.693Z,2.10
2023-02-04T10:04:05.888Z,1.75
2023-02-04T10:07:10.536Z,2.33
2023-02-04T10:10:18.107Z,2.58
2023-02-04T10:13:22.214Z,3.10
2023-02-04T10:16:32.194Z,3.33
2023-02-04T10:19:36.069Z,3.28
2023-02-04T10:22:38.735Z,2.90
2023-02-04T10:25:41.058Z,3.05
2023-02-04T10:28:46.078Z,2.72
2023-02-04T10:31:50.165Z,3.20
2023-02-04T10:34:57.750Z,2.90
2023-02-04T10:38:04.242Z,2.42
2023-02-04T10:41:06.727Z,3.75
2023-02-04T10:44:11.788Z,3.20
2023-02-04T10:47:17.616Z,2.67
2023-02-04T10:50:22.779Z,4.18
2023-02-04T10:53:44.261Z,3.10
2023-02-04T10:56:46.645Z,3.13
2023-02-04T10:59:50.131Z,3.75
2023-02-04T11:02:57.070Z,3.92
2023-02-04T11:06:01.357Z,3.15
2023-02-04T11:09:04.303Z,3.95
2023-02-04T11:12:20.645Z,3.40
2023-02-04T11:15:51.213Z,3.85
2023-02-04T11:18:55.228Z,4.18
2023-02-04T11:22:07.514Z,3.80
2023-02-04T11:25:31.446Z,3.80
2023-02-04T11:28:40.627Z,3.38
2023-02-04T11:31:50.870Z,3.55
2023-02-04T11:34:53.175Z,3.78
2023-02-04T11:37:57.453Z,4.13
2023-02-04T11:41:00.535Z,3.60
2023-02-04T11:44:04.484Z,3.45
2023-02-04T11:47:08.210Z,3.33
2023-02-04T11:50:15.131Z,3.85
2023-02-04T11:53:18.898Z,3.67
2023-02-04T11:56:22.136Z,3.08
2023-02-04T11:59:24.405Z,3.70
2023-02-04T12:02:26.718Z,3.67
2023-02-04T12:05:38.629Z,3.00
2023-02-04T12:11:52.080Z,2.53
2023-02-04T12:14:59.065Z,2.70
2023-02-04T12:18:02.878Z,3.47
2023-02-04T12:21:05.521Z,3.20
2023-02-04T12:24:09.259Z,3.33
2023-02-04T12:27:11.480Z,3.38
2023-02-04T12:30:14.193Z,3.53
2023-02-04T12:33:16.587Z,3.15
2023-02-04T12:36:18.807Z,2.85
2023-02-04T12:39:22.466Z,3.00
2023-02-04T12:42:24.657Z,2.20
2023-02-04T12:45:27.141Z,2.97
2023-02-04T12:48:29.578Z,2.95
2023-02-04T12:51:33.245Z,2.40
2023-02-04T12:54:36.874Z,1.98
2023-02-04T12:57:39.154Z,2.40
2023-02-04T13:00:42.208Z,2.50
2023-02-04T13:03:44.577Z,2.40
2023-02-04T13:06:46.870Z,2.40
2023-02-04T13:09:50.538Z,2.47
2023-02-04T13:12:52.862Z,2.33
2023-02-04T13:15:55.283Z,2.00
2023-02-04T13:18:57.655Z,2.08
2023-02-04T13:22:00.175Z,1.67
2023-02-04T13:25:11.545Z,2.15
2023-02-04T13:28:14.139Z,1.83
2023-02-04T13:31:16.620Z,1.33
2023-02-04T13:34:19.199Z,1.38
2023-02-04T13:37:21.561Z,1.92
2023-02-04T13:40:25.347Z,1.35
2023-02-04T13:43:27.786Z,1.90
2023-02-04T13:46:30.239Z,1.52
2023-02-04T13:49:32.744Z,1.48
2023-02-04T13:52:35.209Z,1.63
2023-02-04T13:55:39.296Z,1.88
2023-02-04T13:58:43.888Z,2.00
2023-02-04T14:01:46.275Z,1.40
2023-02-04T14:04:48.677Z,1.63
2023-02-04T14:07:51.105Z,1.48
2023-02-04T14:10:54.826Z,1.98
2023-02-04T14:13:57.152Z,1.40
2023-02-04T14:16:59.495Z,1.17
2023-02-04T14:20:05.420Z,1.20
2023-02-04T14:23:09.154Z,2.05
2023-02-04T14:26:12.889Z,1.55
2023-02-04T14:29:15.207Z,1.95
2023-02-04T14:32:18.091Z,2.15
2023-02-04T14:35:21.112Z,1.25
2023-02-04T14:38:23.476Z,1.65
2023-02-04T14:41:30.041Z,1.38
2023-02-04T14:44:32.431Z,1.30
2023-02-04T14:47:34.939Z,1.20
2023-02-04T14:50:37.220Z,1.55
2023-02-04T14:53:42.343Z,1.65
2023-02-04T14:56:48.060Z,1.35
2023-02-04T14:59:50.319Z,1.80
2023-02-04T15:02:52.704Z,1.08
2023-02-04T15:05:55.110Z,1.55
2023-02-04T15:08:57.457Z,1.40
2023-02-04T15:12:01.244Z,1.52
2023-02-04T15:15:04.611Z,1.60
2023-02-04T15:18:06.956Z,1.02
2023-02-04T15:21:10.076Z,0.90
2023-02-04T15:24:12.541Z,1.52
2023-02-04T15:27:16.249Z,1.52
2023-02-04T15:30:18.810Z,1.00
2023-02-04T15:33:21.159Z,0.88
2023-02-04T15:36:23.616Z,1.00
2023-02-04T15:39:27.514Z,1.52
2023-02-04T15:42:31.183Z,1.25
2023-02-04T15:45:34.007Z,0.90
2023-02-04T15:48:36.313Z,1.05
2023-02-04T15:51:38.811Z,1.50
2023-02-04T15:54:41.001Z,0.93
2023-02-04T15:57:44.610Z,0.90
2023-02-04T16:00:46.899Z,1.00
2023-02-04T16:03:51.156Z,1.23
2023-02-04T16:06:58.511Z,1.00
2023-02-04T16:10:02.210Z,1.30
2023-02-04T16:13:06.466Z,0.93
2023-02-04T16:16:09.970Z,0.82
2023-02-04T16:19:12.280Z,1.42
2023-02-04T16:22:14.597Z,1.20
2023-02-04T16:25:17.108Z,1.33
2023-02-04T16:28:20.986Z,2.03
2023-02-04T16:31:23.425Z,1.38
2023-02-04T16:34:25.886Z,2.10
2023-02-04T16:37:28.592Z,1.30
2023-02-04T16:40:31.287Z,1.67
2023-02-04T16:43:35.236Z,1.55
2023-02-04T16:46:37.584Z,1.30
2023-02-04T16:49:40.145Z,1.73
2023-02-04T16:52:42.464Z,1.30
2023-02-04T16:55:45.507Z,0.85
2023-02-04T16:58:50.069Z,1.30
2023-02-04T17:01:52.797Z,1.05
2023-02-04T17:04:55.294Z,1.50
2023-02-04T17:07:58.534Z,0.93
2023-02-04T17:11:19.277Z,1.27
2023-02-04T17:14:24.881Z,1.08
2023-02-04T17:17:27.296Z,1.17
2023-02-04T17:20:29.841Z,1.92
2023-02-04T17:23:32.203Z,1.00
2023-02-04T17:26:39.434Z,1.40
2023-02-04T17:29:43.231Z,1.35
2023-02-04T17:32:46.126Z,1.20
2023-02-04T17:35:48.748Z,1.80
2023-02-04T17:38:51.105Z,1.33
2023-02-04T17:41:54.242Z,1.27
2023-02-04T17:44:58.346Z,1.23
2023-02-04T17:48:00.911Z,1.80
2023-02-04T17:51:03.413Z,2.15
2023-02-04T17:54:05.970Z,1.77
2023-02-04T17:57:17.810Z,2.10
2023-02-04T18:00:23.605Z,1.40
2023-02-04T18:03:28.104Z,3.17
2023-02-04T18:06:30.716Z,2.03
2023-02-04T18:09:32.925Z,1.92
2023-02-04T18:12:35.260Z,1.52
2023-02-04T18:15:39.139Z,1.55
2023-02-04T18:18:41.616Z,1.92
2023-02-04T18:21:44.085Z,1.60
2023-02-04T18:24:48.828Z,1.75
2023-02-04T18:27:52.803Z,1.95
2023-02-04T18:30:59.078Z,2.25
2023-02-04T18:34:01.819Z,2.40
2023-02-04T18:37:23.702Z,2.63
2023-02-04T18:40:28.000Z,2.58
2023-02-04T18:43:36.599Z,2.67
2023-02-04T18:46:44.413Z,2.85
2023-02-04T18:49:46.902Z,3.08
2023-02-04T18:52:49.734Z,2.88
2023-02-04T18:55:53.417Z,2.63
2023-02-04T18:58:55.856Z,2.25
2023-02-04T19:01:59.869Z,2.40
2023-02-04T19:05:13.111Z,1.77
2023-02-04T19:08:27.696Z,2.22
2023-02-04T19:11:34.581Z,2.30
2023-02-04T19:14:39.046Z,2.78
2023-02-04T19:17:42.705Z,2.85
2023-02-04T19:20:44.972Z,2.50
2023-02-04T19:23:47.772Z,2.13
2023-02-04T19:26:54.104Z,2.95
2023-02-04T19:29:57.285Z,2.42
2023-02-04T19:33:02.330Z,2.00
2023-02-04T19:36:28.416Z,2.35
2023-02-04T19:39:41.608Z,2.17
2023-02-04T19:42:44.314Z,3.00
2023-02-04T19:45:47.312Z,2.95
2023-02-04T19:48:51.268Z,2.90
2023-02-04T19:51:54.886Z,2.30
2023-02-04T19:55:20.088Z,3.03
2023-02-04T19:58:24.252Z,2.10
2023-02-04T20:01:26.694Z,2.30
2023-02-04T20:04:35.819Z,2.63
2023-02-04T20:07:38.415Z,2.35
2023-02-04T20:10:40.700Z,2.05
2023-02-04T20:13:43.094Z,2.25
2023-02-04T20:16:49.206Z,2.20
2023-02-04T20:19:52.971Z,2.40
2023-02-04T20:22:56.472Z,2.80
2023-02-04T20:26:00.136Z,3.55
2023-02-04T20:29:10.678Z,1.90
2023-02-04T20:32:18.104Z,3.60
2023-02-04T20:35:53.535Z,2.78
2023-02-04T20:39:07.937Z,2.22
2023-02-04T20:42:34.669Z,1.85
2023-02-04T20:45:38.238Z,2.20
2023-02-04T20:48:41.622Z,2.53
2023-02-04T20:51:43.884Z,2.70
2023-02-04T20:54:48.308Z,2.30
2023-02-04T20:57:51.949Z,1.95
2023-02-04T21:00:55.932Z,2.30
2023-02-04T21:03:59.281Z,2.90
2023-02-04T21:07:05.576Z,2.78
2023-02-04T21:10:11.167Z,2.47
2023-02-04T21:13:13.460Z,2.65
2023-02-04T21:16:15.840Z,2.88
2023-02-04T21:19:18.247Z,2.53
2023-02-04T21:22:20.598Z,2.97
2023-02-04T21:25:24.333Z,2.50
2023-02-04T21:28:26.662Z,2.28
2023-02-04T21:31:28.971Z,2.15
2023-02-04T21:34:31.364Z,4.65
2023-02-04T21:37:33.742Z,2.53
2023-02-04T21:40:38.253Z,2.78
2023-02-04T21:43:40.523Z,2.80
2023-02-04T21:46:42.800Z,2.30
2023-02-04T21:49:46.080Z,2.33
2023-02-04T21:52:48.578Z,2.40
2023-02-04T21:55:52.151Z,2.50
2023-02-04T21:58:54.390Z,2.80
2023-02-04T22:01:56.870Z,2.40
2023-02-04T22:04:59.215Z,3.13
2023-02-04T22:08:01.556Z,2.63
2023-02-04T22:11:05.591Z,3.13
2023-02-04T22:14:26.239Z,3.13
2023-02-04T22:17:28.593Z,3.03
2023-02-04T22:20:31.054Z,2.90
2023-02-04T22:23:33.358Z,3.33
2023-02-04T22:26:36.976Z,3.38
2023-02-04T22:29:39.258Z,3.47
2023-02-04T22:32:41.767Z,3.70
2023-02-04T22:35:45.823Z,4.18
2023-02-04T22:38:48.040Z,4.15
2023-02-04T22:41:51.884Z,3.90
2023-02-04T22:44:54.205Z,3.05
2023-02-04T22:47:56.458Z,2.95
2023-02-04T22:51:01.445Z,3.42
2023-02-04T22:54:05.590Z,2.28
2023-02-04T22:57:09.312Z,3.08
2023-02-04T23:00:13.150Z,2.65
2023-02-04T23:03:15.427Z,2.90
2023-02-04T23:06:18.008Z,4.18
2023-02-04T23:09:20.738Z,4.82
2023-02-04T23:12:24.483Z,3.25
2023-02-04T23:15:26.762Z,3.55
2023-02-04T23:18:29.067Z,2.95
2023-02-04T23:21:31.499Z,2.60
2023-02-04T23:24:34.336Z,3.33
2023-02-04T23:27:38.168Z,2.78
2023-02-04T23:30:40.400Z,3.90
2023-02-04T23:33:42.769Z,3.00
2023-02-04T23:36:46.586Z,2.78
2023-02-04T23:39:48.944Z,3.10
2023-02-04T23:42:54.053Z,3.17
2023-02-04T23:45:57.292Z,3.03
2023-02-04T23:48:59.715Z,3.58
2023-02-04T23:52:01.995Z,3.50
2023-02-04T23:55:05.325Z,3.70
2023-02-04T23:58:08.960Z,4.40
